Time;durP1;ratioP1;P1;durP2;ratioP2;P2;SDS_P1;SDS_P2;PMS_P1;PMS_P2;Temp;Humidity;BMP_temperature;BMP_pressure;BME280_temperature;BME280_humidity;BME280_pressure;Samples;Min_cycle;Max_cycle;Signal;HPM_P1;HPM_P2
2023/01/13 00:00:34;;;;;;;3.93;3.47;;;;;;;8.56;93.36;96447.66;5071591;28;20212;-54
2023/01/13 00:02:59;;;;;;;3.23;3.03;;;;;;;8.65;93.20;96436.66;5053477;28;20338;-56
2023/01/13 00:05:25;;;;;;;3.67;3.30;;;;;;;8.64;93.07;96435.06;5071322;28;20245;-52
2023/01/13 00:07:51;;;;;;;4.13;3.73;;;;;;;8.62;93.16;96441.53;5071212;28;20180;-54
2023/01/13 00:10:16;;;;;;;4.03;3.83;;;;;;;8.59;93.89;96424.50;5071551;28;20165;-54
2023/01/13 00:12:42;;;;;;;3.93;3.63;;;;;;;8.57;94.21;96423.13;5071578;28;20201;-56
2023/01/13 00:15:09;;;;;;;4.27;4.07;;;;;;;8.59;93.86;96413.25;5070997;28;20252;-56
2023/01/13 00:17:35;;;;;;;3.73;3.37;;;;;;;8.61;94.44;96409.41;5071128;28;20185;-57
2023/01/13 00:20:01;;;;;;;4.47;3.17;;;;;;;8.62;94.41;96394.53;5077534;28;20226;-55
2023/01/13 00:22:26;;;;;;;3.50;3.30;;;;;;;8.59;94.03;96400.97;5091638;28;20200;-55
2023/01/13 00:24:51;;;;;;;3.63;3.50;;;;;;;8.56;94.44;96403.25;5082911;28;20633;-58
2023/01/13 00:27:17;;;;;;;3.70;3.13;;;;;;;8.51;94.86;96400.50;5071396;28;20366;-55
2023/01/13 00:29:42;;;;;;;4.07;3.77;;;;;;;8.53;94.75;96401.88;5071043;28;20264;-54
2023/01/13 00:32:08;;;;;;;4.07;3.77;;;;;;;8.61;94.78;96400.75;5071388;28;20200;-54
2023/01/13 00:34:33;;;;;;;3.87;3.47;;;;;;;8.53;95.48;96401.06;5071210;28;20169;-56
2023/01/13 00:36:59;;;;;;;2.70;2.60;;;;;;;8.56;94.85;96395.41;5071182;28;20173;-55
2023/01/13 00:39:24;;;;;;;3.33;3.23;;;;;;;8.52;95.01;96391.66;5071419;28;20188;-54
2023/01/13 00:44:33;;;;;;;3.37;3.17;;;;;;;8.60;95.00;96397.34;5070863;28;20184;-56
2023/01/13 00:46:59;;;;;;;3.20;2.67;;;;;;;8.60;94.61;96389.53;5071126;28;20603;-54
2023/01/13 00:49:25;;;;;;;3.20;3.00;;;;;;;8.65;94.63;96386.22;5070858;28;20628;-55
2023/01/13 00:51:50;;;;;;;3.87;3.57;;;;;;;8.62;93.94;96386.69;5071237;28;20208;-58
2023/01/13 00:54:16;;;;;;;5.37;3.90;;;;;;;8.52;94.86;96384.63;5071206;28;20189;-57
2023/01/13 00:56:41;;;;;;;3.50;2.57;;;;;;;8.64;94.04;96369.75;5071638;28;20243;-57
2023/01/13 00:59:10;;;;;;;3.00;2.80;;;;;;;8.63;94.40;96372.63;5069265;28;20694;-51
2023/01/13 01:01:35;;;;;;;4.07;3.00;;;;;;;8.61;93.94;96372.81;5070666;28;20305;-57
2023/01/13 01:04:00;;;;;;;2.90;2.80;;;;;;;8.57;94.08;96363.06;5071026;28;20197;-57
2023/01/13 01:06:27;;;;;;;3.30;3.10;;;;;;;8.62;94.18;96368.41;5070115;28;20667;-52
2023/01/13 01:08:53;;;;;;;3.50;3.20;;;;;;;8.62;93.82;96361.38;5070931;28;20273;-58
2023/01/13 01:11:21;;;;;;;3.90;3.10;;;;;;;8.61;94.32;96361.59;5070947;28;20193;-58
2023/01/13 01:13:50;;;;;;;3.70;3.40;;;;;;;8.65;93.84;96357.50;5071026;28;20180;-58
2023/01/13 01:16:17;;;;;;;3.73;3.50;;;;;;;8.67;93.85;96358.06;5070519;28;20646;-57
2023/01/13 01:18:45;;;;;;;4.10;3.10;;;;;;;8.72;93.93;96352.97;5070735;28;20165;-57
2023/01/13 01:21:11;;;;;;;3.97;3.20;;;;;;;8.75;93.63;96365.56;5094250;28;20212;-58
2023/01/13 01:23:38;;;;;;;3.90;3.60;;;;;;;8.74;93.32;96353.56;5095093;28;20213;-59
2023/01/13 01:26:05;;;;;;;6.77;6.27;;;;;;;8.75;93.13;96362.97;5078263;28;20261;-55
2023/01/13 01:28:32;;;;;;;4.77;4.33;;;;;;;8.86;92.89;96369.25;5074236;28;20634;-51
2023/01/13 01:30:58;;;;;;;5.60;5.37;;;;;;;8.91;92.07;96366.75;5074342;28;20658;-52
2023/01/13 01:33:24;;;;;;;6.43;6.03;;;;;;;8.93;92.08;96357.66;5074638;28;20170;-59
2023/01/13 01:35:50;;;;;;;8.43;7.83;;;;;;;8.99;91.94;96359.34;5074162;28;20177;-60
2023/01/13 01:38:15;;;;;;;7.97;7.57;;;;;;;8.87;92.55;96358.53;5074248;28;20165;-56
2023/01/13 01:40:40;;;;;;;7.07;6.73;;;;;;;8.91;92.60;96359.72;5073720;28;20213;-58
2023/01/13 01:45:57;;;;;;;6.23;3.53;;;;;;;8.94;92.83;96361.84;5074399;28;20234;-56
2023/01/13 01:48:24;;;;;;;4.50;4.20;;;;;;;8.88;92.98;96354.91;5074204;28;20185;-53
2023/01/13 01:50:51;;;;;;;4.20;3.43;;;;;;;8.93;93.30;96355.03;5074087;28;20181;-58
2023/01/13 01:53:19;;;;;;;5.10;4.80;;;;;;;8.85;93.52;96339.69;5073909;28;20275;-56
2023/01/13 01:55:45;;;;;;;4.27;4.03;;;;;;;8.85;94.21;96338.91;5055568;28;20614;-59
2023/01/13 01:58:26;;;;;;;4.43;4.07;;;;;;;8.86;94.91;96335.28;5071665;28;20209;-57
2023/01/13 02:00:52;;;;;;;3.90;3.70;;;;;;;8.85;95.17;96328.44;5073454;28;20205;-57
2023/01/13 02:03:18;;;;;;;3.63;3.53;;;;;;;8.86;94.78;96341.28;5055782;28;20211;-58
2023/01/13 02:05:43;;;;;;;3.87;3.20;;;;;;;8.86;95.10;96332.66;5073231;28;20245;-54
2023/01/13 02:08:11;;;;;;;3.80;3.50;;;;;;;8.84;95.02;96330.25;5073539;28;20165;-57
2023/01/13 02:10:39;;;;;;;4.23;3.93;;;;;;;8.90;94.51;96336.41;5073451;28;20626;-57
2023/01/13 02:13:09;;;;;;;3.97;3.77;;;;;;;8.93;94.65;96338.56;5072519;28;20204;-56
2023/01/13 02:15:41;;;;;;;4.33;3.80;;;;;;;8.86;94.44;96335.28;5074113;28;20173;-54
2023/01/13 02:18:18;;;;;;;3.83;3.63;;;;;;;8.86;94.65;96330.81;5073606;28;20234;-59
2023/01/13 02:20:52;;;;;;;3.77;3.47;;;;;;;8.85;94.12;96329.25;5053390;28;20194;-56
2023/01/13 02:26:09;;;;;;;3.90;3.67;;;;;;;8.80;94.81;96316.06;5031842;28;20189;-55
2023/01/13 02:31:41;;;;;;;3.47;3.27;;;;;;;8.84;94.67;96301.53;5072887;28;20247;-57
2023/01/13 02:34:25;;;;;;;3.43;3.23;;;;;;;8.79;94.78;96316.28;5073396;28;20170;-58
2023/01/13 02:37:15;;;;;;;3.50;3.30;;;;;;;8.80;94.62;96312.66;5069965;22;20324;-54
2023/01/13 02:39:50;;;;;;;3.97;3.60;;;;;;;8.84;95.08;96316.41;5034437;28;20175;-55
2023/01/13 02:45:22;;;;;;;3.40;3.20;;;;;;;8.86;94.87;96298.69;5033203;28;20251;-59
2023/01/13 02:47:50;;;;;;;3.73;2.90;;;;;;;8.88;94.92;96307.06;5033002;28;20171;-60
2023/01/13 02:50:19;;;;;;;3.73;3.43;;;;;;;8.92;94.70;96308.22;5032898;28;20178;-58
2023/01/13 02:53:04;;;;;;;3.57;3.37;;;;;;;8.81;94.90;96304.56;5033261;28;20352;-59
2023/01/13 02:55:38;;;;;;;3.60;3.37;;;;;;;8.88;94.58;96301.84;5033376;28;20258;-59
2023/01/13 02:58:07;;;;;;;4.10;3.17;;;;;;;8.83;94.73;96299.13;5032831;28;20517;-59
2023/01/13 03:00:33;;;;;;;3.40;3.10;;;;;;;8.83;95.23;96289.47;5031843;28;20245;-59
2023/01/13 03:02:59;;;;;;;3.37;3.17;;;;;;;8.73;96.03;96276.19;5032752;28;20233;-57
2023/01/13 03:05:25;;;;;;;2.80;2.60;;;;;;;8.76;96.07;96276.50;5032832;28;20167;-56
2023/01/13 03:08:09;;;;;;;3.33;3.03;;;;;;;8.79;96.29;96277.91;5032009;28;20182;-56
2023/01/13 03:11:06;;;;;;;2.77;2.57;;;;;;;8.81;96.41;96275.81;5030616;28;20182;-57
2023/01/13 03:13:49;;;;;;;3.50;2.83;;;;;;;8.83;96.06;96280.84;5032845;28;20187;-55
2023/01/13 03:16:35;;;;;;;4.33;3.03;;;;;;;8.69;96.90;96282.91;5032167;28;20171;-51
2023/01/13 03:19:14;;;;;;;4.03;3.20;;;;;;;8.74;96.84;96275.16;5032065;28;20274;-55
2023/01/13 03:21:48;;;;;;;2.80;2.60;;;;;;;8.79;96.46;96290.97;5033084;28;20221;-55
2023/01/13 03:24:21;;;;;;;3.13;2.80;;;;;;;8.76;96.87;96284.34;5032536;28;20292;-55
2023/01/13 03:26:58;;;;;;;2.30;2.20;;;;;;;8.76;96.49;96289.59;5032040;28;20612;-57
2023/01/13 03:29:47;;;;;;;2.77;2.57;;;;;;;8.76;96.37;96296.63;5031989;28;20182;-57
2023/01/13 03:32:26;;;;;;;3.47;2.90;;;;;;;8.76;96.42;96289.59;5032562;28;20199;-55
2023/01/13 03:35:00;;;;;;;2.73;2.60;;;;;;;8.78;96.92;96291.97;5032191;28;20646;-57
2023/01/13 03:37:32;;;;;;;3.30;3.00;;;;;;;8.77;96.42;96277.31;5029361;28;20707;-56
2023/01/13 03:40:08;;;;;;;2.67;2.57;;;;;;;8.77;96.88;96277.31;5032697;28;20170;-57
2023/01/13 03:42:37;;;;;;;2.60;2.40;;;;;;;8.78;96.73;96271.06;5031815;28;20198;-55
2023/01/13 03:45:08;;;;;;;2.60;2.40;;;;;;;8.73;97.17;96268.34;5032227;28;20234;-56
2023/01/13 03:47:51;;;;;;;4.23;2.57;;;;;;;8.70;97.70;96277.41;5032075;28;20179;-54
2023/01/13 03:50:22;;;;;;;3.83;3.17;;;;;;;8.67;98.28;96267.44;5032051;28;20167;-57
2023/01/13 03:52:54;;;;;;;2.93;2.43;;;;;;;8.66;98.98;96263.22;5030825;28;20209;-57
2023/01/13 03:55:32;;;;;;;2.70;2.53;;;;;;;8.66;99.17;96259.81;5032183;28;20171;-57
2023/01/13 03:58:00;;;;;;;3.00;2.80;;;;;;;8.60;100.00;96256.28;5031766;28;20189;-57
2023/01/13 04:00:31;;;;;;;3.03;2.83;;;;;;;8.52;100.00;96254.03;5031417;28;20694;-56
2023/01/13 04:03:08;;;;;;;2.80;2.70;;;;;;;8.49;100.00;96257.09;5031852;28;20445;-58
2023/01/13 04:05:40;;;;;;;5.07;4.77;;;;;;;8.48;100.00;96260.72;5031911;28;20174;-57
2023/01/13 04:08:17;;;;;;;3.67;3.47;;;;;;;8.47;100.00;96253.13;5023818;28;20232;-57
2023/01/13 04:11:12;;;;;;;3.70;3.40;;;;;;;8.44;100.00;96241.31;5031659;28;20174;-57
2023/01/13 04:13:40;;;;;;;3.20;3.10;;;;;;;8.41;100.00;96251.41;5029974;28;20229;-57
2023/01/13 04:16:07;;;;;;;3.27;3.07;;;;;;;8.40;100.00;96244.59;5031792;28;20178;-56
2023/01/13 04:18:36;;;;;;;2.83;2.63;;;;;;;8.46;100.00;96247.09;5031736;28;20272;-57
2023/01/13 04:21:03;;;;;;;3.33;3.13;;;;;;;8.52;100.00;96234.97;5032173;28;20285;-59
2023/01/13 04:23:29;;;;;;;2.77;2.67;;;;;;;8.46;100.00;96234.06;5032154;28;20643;-59
2023/01/13 04:25:54;;;;;;;3.50;3.20;;;;;;;8.42;100.00;96243.34;5031666;28;20248;-59
2023/01/13 04:28:20;;;;;;;3.60;3.30;;;;;;;8.49;100.00;96225.75;5031656;28;20252;-58
2023/01/13 04:30:46;;;;;;;3.30;3.00;;;;;;;8.46;100.00;96238.47;5031204;28;20224;-57
2023/01/13 04:33:13;;;;;;;3.57;3.37;;;;;;;8.52;100.00;96250.63;5031357;28;20210;-57
2023/01/13 04:35:39;;;;;;;3.77;3.67;;;;;;;8.60;99.95;96252.88;5031548;28;20615;-57
2023/01/13 04:38:14;;;;;;;5.63;5.27;;;;;;;8.62;99.70;96258.69;5046679;28;20249;-58
2023/01/13 04:40:40;;;;;;;5.90;5.67;;;;;;;8.74;99.17;96249.84;5051858;28;20210;-59
2023/01/13 04:43:05;;;;;;;3.83;3.63;;;;;;;8.73;98.92;96248.25;5051418;28;20202;-59
2023/01/13 04:45:30;;;;;;;2.93;2.83;;;;;;;8.75;98.97;96250.59;5051821;28;20181;-59
2023/01/13 04:47:56;;;;;;;3.47;3.27;;;;;;;8.80;98.68;96231.66;5051806;28;20634;-58
2023/01/13 04:50:22;;;;;;;3.60;3.27;;;;;;;8.82;98.53;96234.81;5051713;28;20626;-59
2023/01/13 04:52:52;;;;;;;3.00;2.80;;;;;;;8.81;98.55;96236.63;5051789;28;20255;-59
2023/01/13 04:55:19;;;;;;;3.40;3.20;;;;;;;8.84;98.06;96225.75;5055738;28;20198;-61
2023/01/13 04:57:44;;;;;;;3.63;3.33;;;;;;;8.80;98.24;96222.00;5055421;28;20185;-57
2023/01/13 05:00:12;;;;;;;3.00;2.90;;;;;;;8.93;97.87;96223.56;5055009;28;20182;-59
2023/01/13 05:02:38;;;;;;;3.87;3.23;;;;;;;8.97;97.47;96219.47;5055845;28;20284;-55
2023/01/13 05:05:05;;;;;;;3.23;3.13;;;;;;;8.77;98.45;96225.84;5055657;28;20178;-53
2023/01/13 05:07:30;;;;;;;3.37;3.00;;;;;;;8.79;97.67;96219.63;5055027;28;20602;-57
2023/01/13 05:09:56;;;;;;;2.63;2.50;;;;;;;8.83;97.85;96213.69;5055123;28;20166;-59
2023/01/13 05:17:50;;;;;;;3.20;3.00;;;;;;;8.85;97.02;96227.34;5054577;28;20320;-57
2023/01/13 05:20:17;;;;;;;2.70;2.60;;;;;;;8.93;96.94;96229.59;5055083;28;20284;-59
2023/01/13 05:25:27;;;;;;;2.80;2.60;;;;;;;8.98;96.81;96227.06;5055165;28;20233;-60
2023/01/13 05:28:01;;;;;;;3.20;2.63;;;;;;;8.94;96.11;96223.34;5054879;28;20646;-60
2023/01/13 05:30:42;;;;;;;2.50;2.40;;;;;;;8.97;96.06;96230.69;5054665;28;20185;-59
2023/01/13 05:33:12;;;;;;;2.97;2.73;;;;;;;9.04;95.77;96238.44;5054490;28;20622;-59
2023/01/13 05:35:39;;;;;;;2.53;2.43;;;;;;;9.06;95.53;96233.78;5054352;28;20190;-59
2023/01/13 05:38:05;;;;;;;2.63;2.20;;;;;;;9.11;95.15;96236.50;5043114;23;20608;-57
2023/01/13 05:43:19;;;;;;;2.73;2.63;;;;;;;9.03;95.43;96221.94;5054781;28;20201;-56
2023/01/13 05:45:56;;;;;;;2.70;2.60;;;;;;;9.02;96.09;96235.25;5054625;28;20521;-58
2023/01/13 05:48:33;;;;;;;2.83;2.73;;;;;;;9.05;95.92;96224.34;5054618;28;20168;-59
2023/01/13 05:51:00;;;;;;;2.70;2.60;;;;;;;9.05;95.57;96226.94;5054078;28;20166;-53
2023/01/13 05:53:26;;;;;;;2.80;2.70;;;;;;;9.00;95.83;96219.81;5054715;28;20177;-59
2023/01/13 05:55:52;;;;;;;2.33;2.23;;;;;;;8.97;96.30;96215.03;5054101;28;20211;-56
2023/01/13 05:58:19;;;;;;;2.83;2.63;;;;;;;8.94;96.29;96218.09;5054037;28;20251;-58
2023/01/13 06:00:45;;;;;;;2.43;2.23;;;;;;;9.02;96.26;96215.16;5053132;28;20696;-56
2023/01/13 06:03:11;;;;;;;2.47;2.37;;;;;;;8.95;96.78;96216.28;5054006;28;20197;-56
2023/01/13 06:05:37;;;;;;;2.60;2.50;;;;;;;8.92;96.67;96214.13;5052694;28;20204;-56
2023/01/13 06:08:04;;;;;;;2.43;2.33;;;;;;;8.95;96.82;96205.84;5054217;28;20549;-56
2023/01/13 06:10:30;;;;;;;1.77;1.77;;;;;;;8.86;97.07;96213.22;5053983;28;20269;-57
2023/01/13 06:12:56;;;;;;;2.37;2.27;;;;;;;8.98;96.71;96219.22;5053760;28;20709;-59
2023/01/13 06:15:21;;;;;;;2.43;2.40;;;;;;;9.02;96.51;96216.97;5053735;28;20166;-57
2023/01/13 06:17:47;;;;;;;2.57;2.37;;;;;;;9.00;96.63;96214.59;5052866;28;20177;-56
2023/01/13 06:20:13;;;;;;;3.47;2.40;;;;;;;9.04;96.33;96218.31;5053428;28;20194;-58
2023/01/13 06:22:42;;;;;;;2.30;2.10;;;;;;;9.07;96.55;96220.47;5053580;28;20726;-56
2023/01/13 06:25:41;;;;;;;2.80;2.60;;;;;;;9.00;96.37;96211.97;5053387;28;20668;-56
2023/01/13 06:28:07;;;;;;;2.20;2.20;;;;;;;9.08;97.10;96221.28;5052678;28;20285;-56
2023/01/13 06:30:38;;;;;;;2.47;2.27;;;;;;;8.98;97.15;96221.84;5053391;28;20232;-59
2023/01/13 06:33:08;;;;;;;2.43;2.33;;;;;;;9.07;97.03;96223.09;5053185;28;20552;-58
2023/01/13 06:35:37;;;;;;;2.43;2.33;;;;;;;9.13;96.12;96235.25;5053174;28;20577;-60
2023/01/13 06:38:07;;;;;;;2.47;2.17;;;;;;;9.04;96.95;96239.22;5051790;28;20202;-59
2023/01/13 06:40:33;;;;;;;2.40;2.30;;;;;;;9.06;97.18;96239.81;5072461;28;20216;-57
2023/01/13 06:43:14;;;;;;;3.17;2.97;;;;;;;9.01;97.69;96238.91;5072530;28;20270;-55
2023/01/13 06:45:42;;;;;;;2.43;2.40;;;;;;;9.07;97.55;96236.16;5073373;28;20192;-55
2023/01/13 06:48:08;;;;;;;2.30;2.20;;;;;;;9.11;97.37;96226.84;5073236;28;20239;-59
2023/01/13 06:50:33;;;;;;;2.60;2.50;;;;;;;8.98;97.73;96221.03;5071641;28;20173;-54
2023/01/13 06:52:58;;;;;;;2.67;2.40;;;;;;;9.03;97.74;96227.19;5072722;28;20197;-61
2023/01/13 06:55:24;;;;;;;2.63;2.37;;;;;;;9.08;98.41;96219.44;5073072;28;20178;-61
2023/01/13 06:57:54;;;;;;;1.93;1.93;;;;;;;8.95;98.51;96224.13;5072786;28;20268;-62
2023/01/13 07:00:22;;;;;;;2.83;2.60;;;;;;;8.82;99.43;96219.13;5072446;28;20591;-67
2023/01/13 07:02:47;;;;;;;2.70;2.60;;;;;;;8.78;100.00;96224.03;5072657;28;20738;-61
2023/01/13 07:05:13;;;;;;;12.03;11.43;;;;;;;8.88;100.00;96211.19;5073157;28;20173;-68
2023/01/13 07:07:39;;;;;;;2.73;2.63;;;;;;;9.00;99.67;96206.75;5073679;28;20290;-62
2023/01/13 07:10:08;;;;;;;3.63;3.33;;;;;;;8.99;99.51;96214.81;5072129;28;20185;-62
2023/01/13 07:15:17;;;;;;;3.00;2.90;;;;;;;8.96;98.94;96218.69;5077735;28;20209;-66
2023/01/13 07:15:22;;;;;;;3.73;3.53;;;;;;;8.91;99.25;96205.50;5076506;28;20610;-62
2023/01/13 07:17:48;;;;;;;3.00;2.90;;;;;;;9.03;98.78;96219.34;5070304;28;20615;-60
2023/01/13 07:20:14;;;;;;;3.30;3.20;;;;;;;8.94;99.08;96214.69;5071505;28;20249;-61
2023/01/13 07:22:39;;;;;;;3.53;3.33;;;;;;;8.97;98.66;96222.88;5072669;28;20205;-62
2023/01/13 07:25:05;;;;;;;3.40;3.20;;;;;;;8.87;99.51;96212.19;5071891;28;20193;-60
2023/01/13 07:27:30;;;;;;;3.40;3.30;;;;;;;8.82;99.58;96212.09;5072069;28;20276;-61
2023/01/13 07:29:55;;;;;;;2.97;2.80;;;;;;;8.84;99.88;96210.06;5072225;28;20710;-59
2023/01/13 07:32:22;;;;;;;3.27;3.07;;;;;;;8.85;99.53;96210.84;5072222;28;20209;-58
2023/01/13 07:34:47;;;;;;;3.10;3.00;;;;;;;8.84;99.95;96223.13;5072438;28;20177;-59
2023/01/13 07:37:13;;;;;;;3.60;3.50;;;;;;;8.92;99.62;96232.41;5071472;28;20235;-61
2023/01/13 07:39:38;;;;;;;3.90;3.80;;;;;;;8.83;99.68;96234.59;5083247;28;20233;-58
2023/01/13 07:44:48;;;;;;;3.27;3.17;;;;;;;9.02;98.83;96230.03;5092961;28;20229;-59
2023/01/13 07:47:13;;;;;;;3.40;3.30;;;;;;;9.05;98.48;96232.97;5091883;28;20169;-59
2023/01/13 07:49:39;;;;;;;3.40;3.20;;;;;;;9.11;98.24;96237.28;5073972;28;20171;-64
2023/01/13 07:52:05;;;;;;;3.20;3.10;;;;;;;9.03;97.89;96240.25;5092370;28;20219;-58
2023/01/13 07:54:30;;;;;;;3.00;2.90;;;;;;;9.04;98.24;96236.59;5092659;28;20181;-58
2023/01/13 07:56:56;;;;;;;2.83;2.73;;;;;;;9.08;98.84;96223.91;5092096;28;20328;-57
2023/01/13 07:59:21;;;;;;;3.03;2.93;;;;;;;8.97;98.87;96228.09;5091675;28;20212;-58
2023/01/13 08:01:47;;;;;;;2.87;2.77;;;;;;;9.12;98.27;96219.78;5092130;28;20205;-60
2023/01/13 08:04:13;;;;;;;3.00;2.90;;;;;;;9.15;98.42;96221.94;5091914;28;20181;-58
2023/01/13 08:06:40;;;;;;;3.23;3.03;;;;;;;9.10;98.26;96234.91;5092037;28;20176;-58
2023/01/13 08:09:06;;;;;;;2.57;2.47;;;;;;;9.14;98.27;96236.81;5090213;28;20276;-59
2023/01/13 08:11:31;;;;;;;2.40;2.40;;;;;;;9.18;98.41;96235.34;5089865;28;20279;-58
2023/01/13 08:13:57;;;;;;;2.53;2.43;;;;;;;9.23;98.42;96242.50;5091936;28;20171;-57
2023/01/13 08:16:23;;;;;;;2.43;2.43;;;;;;;9.21;98.29;96248.97;5090970;28;20233;-58
2023/01/13 08:18:49;;;;;;;2.33;2.33;;;;;;;9.31;98.15;96246.56;5073543;28;20176;-56
2023/01/13 08:21:15;;;;;;;2.13;2.13;;;;;;;9.41;97.81;96244.16;5091658;28;20201;-59
2023/01/13 08:23:42;;;;;;;3.07;2.87;;;;;;;9.52;98.88;96230.25;5091879;28;20207;-59
2023/01/13 08:26:13;;;;;;;2.83;2.73;;;;;;;9.40;100.00;96247.78;5091080;28;20177;-58
2023/01/13 08:28:39;;;;;;;2.70;2.60;;;;;;;9.50;100.00;96246.16;5092162;28;20172;-58
2023/01/13 08:31:07;;;;;;;3.63;3.43;;;;;;;9.55;100.00;96248.88;5095548;28;20200;-59
2023/01/13 08:33:33;;;;;;;3.43;3.33;;;;;;;9.65;100.00;96260.56;5096324;28;20524;-61
2023/01/13 08:36:02;;;;;;;4.67;4.33;;;;;;;9.53;100.00;96264.00;5096322;28;20668;-53
2023/01/13 08:38:28;;;;;;;4.13;4.00;;;;;;;9.46;100.00;96265.97;5092588;28;20261;-61
2023/01/13 08:40:53;;;;;;;4.60;4.40;;;;;;;9.21;100.00;96265.44;5095939;28;20220;-60
2023/01/13 08:43:24;;;;;;;7.27;6.97;;;;;;;9.14;100.00;96262.97;5095465;28;20204;-58
2023/01/13 08:45:58;;;;;;;3.83;3.73;;;;;;;8.99;100.00;96264.47;5096107;28;20561;-58
2023/01/13 08:48:25;;;;;;;3.97;3.70;;;;;;;8.94;100.00;96282.66;5095832;28;20221;-56
2023/01/13 08:50:52;;;;;;;4.13;3.83;;;;;;;9.00;100.00;96292.19;5077354;28;20248;-58
2023/01/13 08:53:19;;;;;;;4.53;4.13;;;;;;;8.91;100.00;96302.22;5095659;28;20196;-58
2023/01/13 08:55:45;;;;;;;4.50;4.30;;;;;;;8.96;100.00;96301.53;5095918;28;20179;-57
2023/01/13 08:58:11;;;;;;;3.87;3.57;;;;;;;9.14;100.00;96315.25;5094662;28;20202;-56
2023/01/13 09:00:36;;;;;;;3.67;3.37;;;;;;;9.27;100.00;96316.84;5122099;22;20232;-54
2023/01/13 09:03:02;;;;;;;3.50;3.20;;;;;;;9.25;100.00;96331.19;5072257;28;20288;-57
2023/01/13 09:05:28;;;;;;;3.43;3.30;;;;;;;9.09;100.00;96333.44;5075366;28;20244;-58
2023/01/13 09:07:53;;;;;;;5.03;4.77;;;;;;;9.09;100.00;96340.47;5061947;28;20273;-52
2023/01/13 09:10:19;;;;;;;2.97;2.87;;;;;;;9.04;100.00;96345.59;5054887;28;20158;-58
2023/01/13 09:15:28;;;;;;;4.57;4.27;;;;;;;8.84;100.00;96353.78;5057409;28;20173;-56
2023/01/13 09:17:53;;;;;;;5.13;4.93;;;;;;;8.72;100.00;96359.00;5062597;28;20277;-57
2023/01/13 09:20:19;;;;;;;4.47;4.20;;;;;;;8.57;100.00;96360.44;5061655;28;20200;-59
2023/01/13 09:22:44;;;;;;;3.47;3.37;;;;;;;8.50;100.00;96359.75;5073981;28;20216;-58
2023/01/13 09:25:11;;;;;;;4.27;4.07;;;;;;;8.45;100.00;96364.84;5073924;28;20165;-58
2023/01/13 09:27:36;;;;;;;3.70;3.50;;;;;;;8.36;100.00;96369.56;5064852;28;20182;-59
2023/01/13 09:30:03;;;;;;;5.40;5.00;;;;;;;8.40;100.00;96383.78;5054518;28;20170;-56
2023/01/13 09:32:28;;;;;;;4.00;3.90;;;;;;;7.99;100.00;96373.25;5054428;28;20210;-58
2023/01/13 09:35:00;;;;;;;4.63;4.33;;;;;;;7.78;100.00;96379.75;5054497;28;20182;-53
2023/01/13 09:37:30;;;;;;;6.93;6.63;;;;;;;8.08;100.00;96380.56;5056410;28;20272;-54
2023/01/13 09:39:56;;;;;;;4.37;4.27;;;;;;;8.17;100.00;96379.25;5061854;28;20227;-57
2023/01/13 09:45:39;;;;;;;4.03;3.93;;;;;;;8.32;100.00;96378.88;5059144;28;20231;-57
2023/01/13 09:48:52;;;;;;;4.10;3.93;;;;;;;8.36;100.00;96384.47;5065211;28;20280;-53
2023/01/13 09:51:29;;;;;;;14.67;13.87;;;;;;;8.42;100.00;96380.94;5024019;28;20196;-57
2023/01/13 09:54:22;;;;;;;6.63;6.33;;;;;;;8.44;100.00;96382.31;5073999;28;20590;-57
2023/01/13 09:56:48;;;;;;;4.27;4.10;;;;;;;8.54;100.00;96389.59;5067254;28;20213;-53
2023/01/13 09:59:15;;;;;;;4.27;4.07;;;;;;;8.32;100.00;96381.47;5069005;28;20177;-59
2023/01/13 10:02:11;;;;;;;3.80;3.60;;;;;;;8.37;100.00;96384.22;5079973;28;20293;-53
2023/01/13 10:04:36;;;;;;;3.90;3.80;;;;;;;8.26;100.00;96393.56;5093365;28;20222;-54
2023/01/13 10:07:04;;;;;;;3.97;3.80;;;;;;;8.17;100.00;96392.31;5086367;28;20165;-59
2023/01/13 10:09:51;;;;;;;3.60;3.40;;;;;;;8.21;100.00;96396.06;5089323;28;20726;-57
2023/01/13 10:15:16;;;;;;;3.73;3.47;;;;;;;7.96;100.00;96395.38;5076813;28;20256;-58
2023/01/13 10:17:53;;;;;;;3.90;3.70;;;;;;;7.82;100.00;96394.72;5091713;28;20183;-58
2023/01/13 10:20:44;;;;;;;3.70;3.50;;;;;;;7.81;100.00;96400.97;5093316;28;20172;-56
2023/01/13 10:23:37;;;;;;;3.93;3.73;;;;;;;7.61;100.00;96400.38;5080191;28;20197;-56
2023/01/13 10:26:29;;;;;;;3.57;3.37;;;;;;;7.72;100.00;96401.47;5077104;28;20200;-54
2023/01/13 10:28:56;;;;;;;3.83;3.60;;;;;;;7.87;100.00;96407.91;5084920;28;20635;-58
2023/01/13 10:31:23;;;;;;;4.40;4.20;;;;;;;8.05;100.00;96408.91;5093211;28;20193;-57
2023/01/13 10:33:57;;;;;;;3.50;3.40;;;;;;;8.16;100.00;96406.38;5077061;28;20182;-56
2023/01/13 10:36:23;;;;;;;3.40;3.20;;;;;;;8.49;100.00;96411.19;5073131;28;20193;-57
2023/01/13 10:38:49;;;;;;;3.47;3.37;;;;;;;8.73;100.00;96412.03;5089471;28;20265;-60
2023/01/13 10:41:15;;;;;;;3.33;3.13;;;;;;;8.65;100.00;96412.34;5092594;28;20242;-58
2023/01/13 10:43:59;;;;;;;4.27;4.07;;;;;;;8.78;100.00;96404.34;5059657;28;20619;-58
2023/01/13 10:46:26;;;;;;;4.13;3.93;;;;;;;8.65;100.00;96414.97;5073159;28;20260;-56
2023/01/13 10:49:29;;;;;;;6.23;6.00;;;;;;;8.71;100.00;96411.47;5080475;28;20262;-57
2023/01/13 10:51:55;;;;;;;8.90;8.50;;;;;;;8.88;100.00;96427.28;5089137;28;20200;-58
2023/01/13 10:54:22;;;;;;;6.07;5.77;;;;;;;8.68;100.00;96419.75;5072982;28;20591;-56
2023/01/13 10:56:49;;;;;;;6.17;5.87;;;;;;;8.41;100.00;96428.97;5073664;28;20177;-58
2023/01/13 10:59:23;;;;;;;8.17;7.83;;;;;;;8.23;100.00;96427.16;5075582;28;20185;-57
2023/01/13 11:02:18;;;;;;;12.27;11.73;;;;;;;8.11;100.00;96432.34;5087031;28;20317;-53
2023/01/13 11:04:56;;;;;;;5.20;4.90;;;;;;;7.93;100.00;96442.78;5075526;28;20664;-55
2023/01/13 11:07:39;;;;;;;4.40;4.10;;;;;;;7.81;100.00;96439.28;5072800;28;20158;-54
2023/01/13 11:10:07;;;;;;;3.40;3.30;;;;;;;7.67;100.00;96443.88;5088641;28;20168;-52
2023/01/13 11:12:34;;;;;;;4.20;4.00;;;;;;;7.18;100.00;96429.09;5080086;28;20672;-53
2023/01/13 11:15:07;;;;;;;4.47;4.27;;;;;;;7.23;100.00;96429.25;5078801;28;20623;-56
2023/01/13 11:17:46;;;;;;;9.93;9.43;;;;;;;7.21;100.00;96433.06;5088602;28;20193;-53
2023/01/13 11:20:29;;;;;;;6.40;6.00;;;;;;;7.24;100.00;96450.91;5091957;28;20177;-57
2023/01/13 11:22:58;;;;;;;4.93;4.73;;;;;;;7.29;100.00;96457.06;5093025;28;20208;-58
2023/01/13 11:25:31;;;;;;;5.60;5.40;;;;;;;7.40;100.00;96440.72;5074357;28;20152;-54
2023/01/13 11:28:03;;;;;;;4.60;4.40;;;;;;;7.39;100.00;96446.94;5087449;28;20659;-54
2023/01/13 11:30:37;;;;;;;12.77;12.00;;;;;;;7.31;100.00;96457.63;5072149;28;20589;-54
2023/01/13 11:33:08;;;;;;;12.37;11.57;;;;;;;7.31;100.00;96459.44;5072086;28;20646;-56
2023/01/13 11:35:42;;;;;;;10.23;9.67;;;;;;;7.17;100.00;96458.75;5074934;28;20170;-59
2023/01/13 11:38:15;;;;;;;11.30;10.70;;;;;;;7.04;100.00;96459.66;5074407;28;20176;-55
2023/01/13 11:40:45;;;;;;;9.50;9.10;;;;;;;7.12;100.00;96460.41;5091433;28;20232;-58
2023/01/13 11:43:21;;;;;;;5.63;5.43;;;;;;;7.01;100.00;96462.69;5073694;28;20196;-58
2023/01/13 11:45:49;;;;;;;5.43;5.17;;;;;;;6.95;100.00;96447.13;5092786;28;20167;-57
2023/01/13 11:48:18;;;;;;;5.13;4.83;;;;;;;6.89;100.00;96450.56;5088586;28;20177;-56
2023/01/13 11:51:14;;;;;;;4.60;4.30;;;;;;;6.92;100.00;96444.91;5072592;28;20359;-54
2023/01/13 11:53:59;;;;;;;4.97;4.57;;;;;;;7.13;100.00;96459.41;5072722;28;20238;-56
2023/01/13 11:56:40;;;;;;;4.20;4.00;;;;;;;7.05;100.00;96461.25;5053774;28;20180;-56
2023/01/13 11:59:36;;;;;;;6.20;5.80;;;;;;;7.14;100.00;96451.34;5072110;28;20184;-56
2023/01/13 12:02:27;;;;;;;6.23;5.73;;;;;;;7.05;100.00;96453.44;5087721;28;20569;-53
2023/01/13 12:05:22;;;;;;;6.97;6.67;;;;;;;7.02;100.00;96450.47;5071465;28;20178;-57
2023/01/13 12:08:05;;;;;;;7.83;7.33;;;;;;;7.04;100.00;96451.84;5071888;28;20169;-57
2023/01/13 12:10:56;;;;;;;7.77;7.27;;;;;;;6.87;100.00;96455.16;5071607;28;20169;-57
2023/01/13 12:13:34;;;;;;;7.77;7.37;;;;;;;6.85;100.00;96450.19;5069596;28;20284;-57
2023/01/13 12:16:13;;;;;;;8.13;7.63;;;;;;;6.93;100.00;96438.69;5071752;28;20200;-56
2023/01/13 12:19:06;;;;;;;5.00;4.70;;;;;;;6.77;100.00;96444.44;5078090;28;20169;-58
2023/01/13 12:21:53;;;;;;;8.43;7.77;;;;;;;6.81;100.00;96449.00;5091545;28;20725;-56
2023/01/13 12:24:28;;;;;;;8.57;8.07;;;;;;;6.93;100.00;96454.34;5091942;28;20190;-56
2023/01/13 12:27:12;;;;;;;7.57;7.23;;;;;;;7.15;100.00;96459.97;5091333;28;20171;-56
2023/01/13 12:29:38;;;;;;;4.93;4.73;;;;;;;7.21;100.00;96462.53;5058466;28;20227;-59
2023/01/13 12:32:22;;;;;;;5.30;4.80;;;;;;;7.39;100.00;96461.78;5053364;28;20279;-56